Terminal Aerodrome Forecast
Issued by NWS Albany, NY

Home | Current Version | Previous Version | Text Only | Print | Product List | Glossary On
Versions: 1 2 3 4 5 6 7 8 9 10 11 12 13 14 15 16 17 18
401
FTUS41 KALY 182209 AAD
TAFALB
TAF AMD
KALB 182209Z 1822/1918 18008KT P6SM SCT006 BKN040
      TEMPO 1822/1824 4SM BR BKN006 BKN040
     FM190000 20006KT 4SM BR SCT025 BKN050
      TEMPO 1900/1904 2SM -SHRA BR SCT007 OVC025
     FM190800 VRB03KT 2SM BR BKN008
     FM191300 27007KT P6SM BKN035=

USA.gov is the U.S. government's official web portal to all federal, state and local government web resources and services.